Moscow Mills, Missouri
Current Conditions -  °F | °C
As of 9:54 AM on Friday 19 Dec 2014 (Local Time) from KSUS Reporting Station
Haze Haze  
Wind Chill: 34°   Ceiling: 3000
Heat Index: 34°   Visibility: 6mi
Dew Point: 28°   Wind: 3mph
Humidity: 79%   Direction: 80°E
Pressure: 30.34"   Gusts: NA
Location:  38.95°N, 90.92°W
Report Text: KSUS 191554Z 08003KT 6SM HZ SCT015 OVC030 01/M02 A3034 RMK AO2 SLP281 T00111022
Loading
Personal Weather Stations






























Interactive Weather Map New forecast layout! Learn more

10-Day Weather Forecast

Advertisements
Track Severe Weather on mobile